sensor_id;sensor_type;location;lat;lon;timestamp;pressure;altitude;pressure_sealevel;temperature;humidity
58668;BME280;59852;43.086;25.634;2023-02-13T00:02:03;100845.72;;;-0.50;76.61
58668;BME280;59852;43.086;25.634;2023-02-13T00:04:28;100847.41;;;-0.52;76.96
58668;BME280;59852;43.086;25.634;2023-02-13T00:06:53;100841.41;;;-0.53;76.65
58668;BME280;59852;43.086;25.634;2023-02-13T00:09:19;100846.59;;;-0.48;76.82
58668;BME280;59852;43.086;25.634;2023-02-13T00:11:44;100842.28;;;-0.51;77.10
58668;BME280;59852;43.086;25.634;2023-02-13T00:14:09;100846.47;;;-0.64;77.06
58668;BME280;59852;43.086;25.634;2023-02-13T00:16:35;100850.69;;;-0.73;77.45
58668;BME280;59852;43.086;25.634;2023-02-13T00:19:00;100853.16;;;-0.84;77.99
58668;BME280;59852;43.086;25.634;2023-02-13T00:21:25;100865.13;;;-0.86;77.85
58668;BME280;59852;43.086;25.634;2023-02-13T00:23:51;100860.84;;;-0.87;77.87
58668;BME280;59852;43.086;25.634;2023-02-13T00:26:16;100866.66;;;-1.05;78.07
58668;BME280;59852;43.086;25.634;2023-02-13T00:28:42;100872.69;;;-1.01;78.71
58668;BME280;59852;43.086;25.634;2023-02-13T00:31:11;100864.22;;;-0.90;78.31
58668;BME280;59852;43.086;25.634;2023-02-13T00:33:37;100872.75;;;-0.95;78.10
58668;BME280;59852;43.086;25.634;2023-02-13T00:36:09;100863.44;;;-0.81;77.79
58668;BME280;59852;43.086;25.634;2023-02-13T00:38:36;100872.00;;;-0.83;78.00
58668;BME280;59852;43.086;25.634;2023-02-13T00:41:01;100866.03;;;-0.79;78.06
58668;BME280;59852;43.086;25.634;2023-02-13T00:43:27;100876.28;;;-0.85;77.87
58668;BME280;59852;43.086;25.634;2023-02-13T00:45:52;100875.50;;;-0.74;77.65
58668;BME280;59852;43.086;25.634;2023-02-13T00:48:17;100871.94;;;-0.90;77.73
58668;BME280;59852;43.086;25.634;2023-02-13T00:50:42;100871.91;;;-0.96;78.23
58668;BME280;59852;43.086;25.634;2023-02-13T00:53:08;100879.63;;;-0.91;78.64
58668;BME280;59852;43.086;25.634;2023-02-13T00:55:33;100878.84;;;-0.84;77.73
58668;BME280;59852;43.086;25.634;2023-02-13T00:57:59;100884.75;;;-0.96;78.48
58668;BME280;59852;43.086;25.634;2023-02-13T01:00:25;100883.91;;;-0.93;79.03
58668;BME280;59852;43.086;25.634;2023-02-13T01:02:50;100883.81;;;-0.99;78.43
58668;BME280;59852;43.086;25.634;2023-02-13T01:05:15;100881.13;;;-1.13;79.26
58668;BME280;59852;43.086;25.634;2023-02-13T01:07:41;100878.72;;;-0.98;79.03
58668;BME280;59852;43.086;25.634;2023-02-13T01:10:06;100878.78;;;-0.90;78.26
58668;BME280;59852;43.086;25.634;2023-02-13T01:12:31;100877.91;;;-0.94;79.02
58668;BME280;59852;43.086;25.634;2023-02-13T01:14:57;100869.31;;;-0.97;79.15
58668;BME280;59852;43.086;25.634;2023-02-13T01:17:22;100883.13;;;-0.84;78.50
58668;BME280;59852;43.086;25.634;2023-02-13T01:19:47;100877.06;;;-0.91;78.65
58668;BME280;59852;43.086;25.634;2023-02-13T01:22:13;100881.75;;;-1.35;80.22
58668;BME280;59852;43.086;25.634;2023-02-13T01:24:38;100869.78;;;-1.35;79.79
58668;BME280;59852;43.086;25.634;2023-02-13T01:27:03;100876.56;;;-1.38;80.46
58668;BME280;59852;43.086;25.634;2023-02-13T01:29:29;100876.81;;;-1.17;79.27
58668;BME280;59852;43.086;25.634;2023-02-13T01:31:54;100875.91;;;-1.21;78.49
58668;BME280;59852;43.086;25.634;2023-02-13T01:34:19;100888.66;;;-1.28;79.41
58668;BME280;59852;43.086;25.634;2023-02-13T01:36:45;100882.75;;;-1.21;78.71
58668;BME280;59852;43.086;25.634;2023-02-13T01:39:10;100883.53;;;-1.28;79.46
58668;BME280;59852;43.086;25.634;2023-02-13T01:41:36;100878.56;;;-1.13;78.85
58668;BME280;59852;43.086;25.634;2023-02-13T01:44:02;100892.03;;;-1.35;79.36
58668;BME280;59852;43.086;25.634;2023-02-13T01:46:31;100889.56;;;-1.26;79.04
58668;BME280;59852;43.086;25.634;2023-02-13T01:51:54;100889.38;;;-1.40;79.74
58668;BME280;59852;43.086;25.634;2023-02-13T01:54:21;100890.31;;;-1.35;79.85
58668;BME280;59852;43.086;25.634;2023-02-13T01:56:54;100892.06;;;-1.31;79.59
58668;BME280;59852;43.086;25.634;2023-02-13T01:59:24;100887.84;;;-1.26;78.98
58668;BME280;59852;43.086;25.634;2023-02-13T02:01:50;100893.88;;;-1.24;79.23
58668;BME280;59852;43.086;25.634;2023-02-13T02:04:17;100890.31;;;-1.36;79.62
58668;BME280;59852;43.086;25.634;2023-02-13T02:06:56;100890.34;;;-1.33;79.63
58668;BME280;59852;43.086;25.634;2023-02-13T02:09:24;100892.94;;;-1.30;79.34
58668;BME280;59852;43.086;25.634;2023-02-13T02:12:00;100887.88;;;-1.21;78.85
58668;BME280;59852;43.086;25.634;2023-02-13T02:14:28;100890.22;;;-1.42;79.78
58668;BME280;59852;43.086;25.634;2023-02-13T02:16:54;100890.06;;;-1.56;80.40
58668;BME280;59852;43.086;25.634;2023-02-13T02:32:47;100886.28;;;-1.84;80.14
58668;BME280;59852;43.086;25.634;2023-02-13T02:43:04;100881.44;;;-1.63;79.43
58668;BME280;59852;43.086;25.634;2023-02-13T02:51:16;100883.13;;;-1.65;79.46
58668;BME280;59852;43.086;25.634;2023-02-13T02:53:57;100891.78;;;-1.55;79.38
58668;BME280;59852;43.086;25.634;2023-02-13T02:56:34;100889.13;;;-1.61;79.96
58668;BME280;59852;43.086;25.634;2023-02-13T02:59:05;100893.41;;;-1.62;79.58
58668;BME280;59852;43.086;25.634;2023-02-13T03:01:51;100897.78;;;-1.55;79.67
58668;BME280;59852;43.086;25.634;2023-02-13T03:04:40;100901.81;;;-1.74;80.28
58668;BME280;59852;43.086;25.634;2023-02-13T03:07:26;100900.16;;;-1.70;80.13
58668;BME280;59852;43.086;25.634;2023-02-13T03:09:52;100906.41;;;-1.48;80.25
58668;BME280;59852;43.086;25.634;2023-02-13T03:12:40;100896.19;;;-1.47;80.28
58668;BME280;59852;43.086;25.634;2023-02-13T03:15:26;100883.50;;;-1.31;79.48
58668;BME280;59852;43.086;25.634;2023-02-13T03:17:53;100881.88;;;-1.23;78.89
58668;BME280;59852;43.086;25.634;2023-02-13T03:20:52;100884.09;;;-1.54;79.90
58668;BME280;59852;43.086;25.634;2023-02-13T03:23:50;100875.97;;;-1.87;79.93
58668;BME280;59852;43.086;25.634;2023-02-13T03:31:51;100871.06;;;-1.72;79.60
58668;BME280;59852;43.086;25.634;2023-02-13T03:34:25;100865.16;;;-1.66;79.54
58668;BME280;59852;43.086;25.634;2023-02-13T03:37:14;100857.50;;;-1.60;78.40
58668;BME280;59852;43.086;25.634;2023-02-13T03:40:11;100862.63;;;-1.60;78.08
58668;BME280;59852;43.086;25.634;2023-02-13T03:42:39;100863.38;;;-1.69;78.19
58668;BME280;59852;43.086;25.634;2023-02-13T03:45:10;100861.50;;;-1.85;78.99
58668;BME280;59852;43.086;25.634;2023-02-13T03:47:56;100858.78;;;-1.96;78.53
58668;BME280;59852;43.086;25.634;2023-02-13T03:50:23;100859.66;;;-1.94;78.05
58668;BME280;59852;43.086;25.634;2023-02-13T03:55:24;100865.53;;;-2.01;78.18
58668;BME280;59852;43.086;25.634;2023-02-13T03:58:18;100865.50;;;-2.06;78.35
58668;BME280;59852;43.086;25.634;2023-02-13T04:01:06;100868.19;;;-1.95;77.87
58668;BME280;59852;43.086;25.634;2023-02-13T04:06:08;100874.38;;;-1.78;76.91
58668;BME280;59852;43.086;25.634;2023-02-13T04:08:35;100873.31;;;-1.96;76.99
58668;BME280;59852;43.086;25.634;2023-02-13T04:13:31;100879.91;;;-2.12;77.58
58668;BME280;59852;43.086;25.634;2023-02-13T04:16:09;100878.38;;;-1.99;77.53
58668;BME280;59852;43.086;25.634;2023-02-13T04:18:35;100880.06;;;-2.03;77.20
58668;BME280;59852;43.086;25.634;2023-02-13T04:21:02;100882.06;;;-1.79;77.32
58668;BME280;59852;43.086;25.634;2023-02-13T04:23:28;100877.72;;;-1.86;77.05
58668;BME280;59852;43.086;25.634;2023-02-13T04:25:54;100881.91;;;-1.91;77.19
58668;BME280;59852;43.086;25.634;2023-02-13T04:28:20;100875.97;;;-1.89;76.54
58668;BME280;59852;43.086;25.634;2023-02-13T04:30:45;100875.06;;;-1.92;77.10
58668;BME280;59852;43.086;25.634;2023-02-13T04:33:10;100884.44;;;-1.96;76.91
58668;BME280;59852;43.086;25.634;2023-02-13T04:35:35;100878.34;;;-2.03;77.30
58668;BME280;59852;43.086;25.634;2023-02-13T04:38:01;100876.81;;;-1.88;77.32
58668;BME280;59852;43.086;25.634;2023-02-13T04:40:26;100875.97;;;-1.87;77.14
58668;BME280;59852;43.086;25.634;2023-02-13T04:42:52;100881.31;;;-1.70;76.18
58668;BME280;59852;43.086;25.634;2023-02-13T04:45:17;100887.16;;;-1.84;76.19
58668;BME280;59852;43.086;25.634;2023-02-13T04:47:42;100876.06;;;-1.80;76.30
58668;BME280;59852;43.086;25.634;2023-02-13T04:50:08;100883.84;;;-1.77;76.37
58668;BME280;59852;43.086;25.634;2023-02-13T04:52:33;100881.06;;;-1.92;76.59
58668;BME280;59852;43.086;25.634;2023-02-13T04:54:59;100888.88;;;-1.83;76.42
58668;BME280;59852;43.086;25.634;2023-02-13T04:57:24;100891.44;;;-1.83;76.29
58668;BME280;59852;43.086;25.634;2023-02-13T04:59:49;100881.94;;;-1.90;76.43
58668;BME280;59852;43.086;25.634;2023-02-13T05:02:15;100888.72;;;-1.93;76.54
58668;BME280;59852;43.086;25.634;2023-02-13T05:04:40;100880.38;;;-1.79;76.09
58668;BME280;59852;43.086;25.634;2023-02-13T05:07:05;100879.50;;;-1.78;75.81
58668;BME280;59852;43.086;25.634;2023-02-13T05:09:31;100890.38;;;-1.97;76.73
58668;BME280;59852;43.086;25.634;2023-02-13T05:11:56;100892.88;;;-2.03;77.06
58668;BME280;59852;43.086;25.634;2023-02-13T05:14:21;100881.88;;;-1.94;77.04
58668;BME280;59852;43.086;25.634;2023-02-13T05:16:47;100893.13;;;-1.83;75.81
58668;BME280;59852;43.086;25.634;2023-02-13T05:19:14;100885.22;;;-2.00;76.18
58668;BME280;59852;43.086;25.634;2023-02-13T05:21:39;100884.31;;;-2.05;76.33
58668;BME280;59852;43.086;25.634;2023-02-13T05:24:23;100887.13;;;-1.85;75.63
58668;BME280;59852;43.086;25.634;2023-02-13T05:26:48;100890.31;;;-2.03;75.99
58668;BME280;59852;43.086;25.634;2023-02-13T05:29:14;100893.72;;;-2.03;76.11
58668;BME280;59852;43.086;25.634;2023-02-13T05:34:15;100892.16;;;-1.23;73.29
58668;BME280;59852;43.086;25.634;2023-02-13T05:36:40;100890.91;;;-0.78;71.98
58668;BME280;59852;43.086;25.634;2023-02-13T05:39:05;100892.97;;;-0.33;69.95
58668;BME280;59852;43.086;25.634;2023-02-13T05:41:31;100904.63;;;0.56;66.61
58668;BME280;59852;43.086;25.634;2023-02-13T05:43:56;100900.88;;;-0.03;68.24
58668;BME280;59852;43.086;25.634;2023-02-13T05:46:21;100903.16;;;-0.47;69.39
58668;BME280;59852;43.086;25.634;2023-02-13T05:48:47;100912.09;;;0.06;68.46
58668;BME280;59852;43.086;25.634;2023-02-13T05:51:12;100909.03;;;2.16;61.46
58668;BME280;59852;43.086;25.634;2023-02-13T05:53:37;100908.22;;;2.09;60.18
58668;BME280;59852;43.086;25.634;2023-02-13T05:56:03;100908.28;;;1.68;62.45
58668;BME280;59852;43.086;25.634;2023-02-13T05:58:29;100910.50;;;0.29;66.42
58668;BME280;59852;43.086;25.634;2023-02-13T06:00:55;100907.38;;;-0.53;70.20
58668;BME280;59852;43.086;25.634;2023-02-13T06:03:22;100910.66;;;-0.70;71.39
58668;BME280;59852;43.086;25.634;2023-02-13T06:05:47;100915.06;;;-0.56;71.74
58668;BME280;59852;43.086;25.634;2023-02-13T06:08:13;100915.41;;;-0.14;68.25
58668;BME280;59852;43.086;25.634;2023-02-13T06:10:38;100907.38;;;1.83;64.19
58668;BME280;59852;43.086;25.634;2023-02-13T06:13:03;100903.81;;;2.34;60.11
58668;BME280;59852;43.086;25.634;2023-02-13T06:15:29;100896.81;;;5.26;52.54
58668;BME280;59852;43.086;25.634;2023-02-13T06:17:54;100897.25;;;6.92;47.36
58668;BME280;59852;43.086;25.634;2023-02-13T06:20:19;100905.09;;;5.50;50.03
58668;BME280;59852;43.086;25.634;2023-02-13T06:22:48;100906.59;;;5.09;49.88
58668;BME280;59852;43.086;25.634;2023-02-13T06:25:14;100909.47;;;3.15;55.60
58668;BME280;59852;43.086;25.634;2023-02-13T06:27:40;100919.22;;;2.63;56.76
58668;BME280;59852;43.086;25.634;2023-02-13T06:30:05;100916.00;;;1.82;58.48
58668;BME280;59852;43.086;25.634;2023-02-13T06:32:31;100918.34;;;0.55;63.38
58668;BME280;59852;43.086;25.634;2023-02-13T06:34:56;100917.16;;;-0.08;67.64
58668;BME280;59852;43.086;25.634;2023-02-13T06:37:21;100919.03;;;0.19;68.99
58668;BME280;59852;43.086;25.634;2023-02-13T06:39:47;100913.44;;;1.68;63.00
58668;BME280;59852;43.086;25.634;2023-02-13T06:42:12;100913.41;;;1.40;62.62
58668;BME280;59852;43.086;25.634;2023-02-13T06:44:37;100924.44;;;0.74;65.40
58668;BME280;59852;43.086;25.634;2023-02-13T06:47:03;100921.63;;;0.23;67.30
58668;BME280;59852;43.086;25.634;2023-02-13T06:49:28;100921.53;;;0.10;68.18
58668;BME280;59852;43.086;25.634;2023-02-13T06:51:53;100922.31;;;-0.04;69.20
58668;BME280;59852;43.086;25.634;2023-02-13T06:54:19;100926.69;;;0.08;69.12
58668;BME280;59852;43.086;25.634;2023-02-13T06:56:44;100921.34;;;-0.22;70.24
58668;BME280;59852;43.086;25.634;2023-02-13T06:59:09;100919.81;;;0.01;69.01
58668;BME280;59852;43.086;25.634;2023-02-13T07:01:35;100919.53;;;-0.33;69.06
58668;BME280;59852;43.086;25.634;2023-02-13T07:04:00;100921.53;;;0.08;67.18
58668;BME280;59852;43.086;25.634;2023-02-13T07:06:25;100930.41;;;0.68;66.34
58668;BME280;59852;43.086;25.634;2023-02-13T07:08:51;100931.19;;;0.47;66.03
58668;BME280;59852;43.086;25.634;2023-02-13T07:11:19;100922.59;;;0.45;66.99
58668;BME280;59852;43.086;25.634;2023-02-13T07:13:45;100924.53;;;1.03;64.31
58668;BME280;59852;43.086;25.634;2023-02-13T07:16:10;100917.56;;;0.77;64.58
58668;BME280;59852;43.086;25.634;2023-02-13T07:18:36;100919.34;;;0.92;64.81
58668;BME280;59852;43.086;25.634;2023-02-13T07:21:01;100911.09;;;-0.16;68.05
58668;BME280;59852;43.086;25.634;2023-02-13T07:23:26;100918.88;;;-0.09;68.79
58668;BME280;59852;43.086;25.634;2023-02-13T07:25:52;100909.34;;;-0.22;69.06
58668;BME280;59852;43.086;25.634;2023-02-13T07:28:17;100919.97;;;0.33;68.33
58668;BME280;59852;43.086;25.634;2023-02-13T07:30:42;100912.41;;;0.74;67.23
58668;BME280;59852;43.086;25.634;2023-02-13T07:33:08;100912.56;;;1.80;63.97
58668;BME280;59852;43.086;25.634;2023-02-13T07:35:33;100908.88;;;2.66;61.13
58668;BME280;59852;43.086;25.634;2023-02-13T07:38:00;100903.50;;;3.04;59.30
58668;BME280;59852;43.086;25.634;2023-02-13T07:40:25;100912.53;;;1.46;63.52
58668;BME280;59852;43.086;25.634;2023-02-13T07:42:50;100903.38;;;3.26;59.28
58668;BME280;59852;43.086;25.634;2023-02-13T07:45:16;100900.00;;;4.14;56.50
58668;BME280;59852;43.086;25.634;2023-02-13T07:47:41;100913.34;;;2.15;62.06
58668;BME280;59852;43.086;25.634;2023-02-13T07:50:07;100900.00;;;4.85;54.23
58668;BME280;59852;43.086;25.634;2023-02-13T07:52:32;100896.06;;;4.56;54.25
58668;BME280;59852;43.086;25.634;2023-02-13T07:54:58;100902.00;;;2.61;58.62
58668;BME280;59852;43.086;25.634;2023-02-13T07:57:23;100901.09;;;2.77;59.91
58668;BME280;59852;43.086;25.634;2023-02-13T07:59:49;100892.44;;;5.30;53.06
58668;BME280;59852;43.086;25.634;2023-02-13T08:02:14;100892.09;;;5.53;51.81
58668;BME280;59852;43.086;25.634;2023-02-13T08:04:40;100898.09;;;3.39;57.26
58668;BME280;59852;43.086;25.634;2023-02-13T08:07:05;100889.66;;;5.40;53.17
58668;BME280;59852;43.086;25.634;2023-02-13T08:09:30;100889.22;;;6.17;49.66
58668;BME280;59852;43.086;25.634;2023-02-13T08:12:14;100890.59;;;6.78;48.81
58668;BME280;59852;43.086;25.634;2023-02-13T08:14:40;100875.41;;;6.60;48.81
58668;BME280;59852;43.086;25.634;2023-02-13T08:17:05;100881.22;;;6.29;49.90
58668;BME280;59852;43.086;25.634;2023-02-13T08:19:30;100874.22;;;7.13;47.99
58668;BME280;59852;43.086;25.634;2023-02-13T08:21:56;100881.50;;;6.57;48.57
58668;BME280;59852;43.086;25.634;2023-02-13T08:24:21;100874.53;;;7.35;47.84
58668;BME280;59852;43.086;25.634;2023-02-13T08:26:47;100879.75;;;5.13;51.79
58668;BME280;59852;43.086;25.634;2023-02-13T08:29:12;100871.22;;;5.59;51.21
58668;BME280;59852;43.086;25.634;2023-02-13T08:31:37;100871.19;;;5.06;51.79
58668;BME280;59852;43.086;25.634;2023-02-13T08:34:03;100867.34;;;7.11;47.92
58668;BME280;59852;43.086;25.634;2023-02-13T08:36:28;100866.03;;;6.08;50.65
58668;BME280;59852;43.086;25.634;2023-02-13T08:38:54;100858.72;;;7.07;48.11
58668;BME280;59852;43.086;25.634;2023-02-13T08:41:19;100860.00;;;7.27;47.11
58668;BME280;59852;43.086;25.634;2023-02-13T08:43:48;100856.94;;;5.33;51.38
58668;BME280;59852;43.086;25.634;2023-02-13T08:46:14;100856.91;;;5.35;52.68
58668;BME280;59852;43.086;25.634;2023-02-13T08:48:39;100862.16;;;5.32;51.38
58668;BME280;59852;43.086;25.634;2023-02-13T08:51:05;100849.34;;;6.21;50.43
58668;BME280;59852;43.086;25.634;2023-02-13T08:53:32;100851.44;;;5.50;52.35
58668;BME280;59852;43.086;25.634;2023-02-13T08:55:57;100852.06;;;6.14;51.05
58668;BME280;59852;43.086;25.634;2023-02-13T08:58:22;100847.09;;;6.03;52.19
58668;BME280;59852;43.086;25.634;2023-02-13T09:00:48;100854.47;;;4.66;54.39
58668;BME280;59852;43.086;25.634;2023-02-13T09:03:14;100856.91;;;4.78;55.18
58668;BME280;59852;43.086;25.634;2023-02-13T09:05:39;100850.94;;;5.79;52.62
58668;BME280;59852;43.086;25.634;2023-02-13T09:08:04;100844.69;;;5.40;54.09
58668;BME280;59852;43.086;25.634;2023-02-13T09:10:30;100847.56;;;5.75;53.34
58668;BME280;59852;43.086;25.634;2023-02-13T09:12:56;100840.94;;;5.05;54.28
58668;BME280;59852;43.086;25.634;2023-02-13T09:15:21;100838.41;;;5.02;55.22
58668;BME280;59852;43.086;25.634;2023-02-13T09:17:46;100837.72;;;5.45;54.52
58668;BME280;59852;43.086;25.634;2023-02-13T09:20:12;100839.88;;;5.71;54.08
58668;BME280;59852;43.086;25.634;2023-02-13T09:22:41;100841.09;;;5.48;53.55
58668;BME280;59852;43.086;25.634;2023-02-13T09:25:07;100841.69;;;5.13;55.12
58668;BME280;59852;43.086;25.634;2023-02-13T09:27:32;100837.91;;;5.33;54.74
58668;BME280;59852;43.086;25.634;2023-02-13T09:29:59;100839.06;;;5.15;55.15
58668;BME280;59852;43.086;25.634;2023-02-13T09:32:24;100836.31;;;5.24;55.14
58668;BME280;59852;43.086;25.634;2023-02-13T09:34:49;100837.63;;;5.51;54.78
58668;BME280;59852;43.086;25.634;2023-02-13T09:37:15;100833.19;;;5.56;54.98
58668;BME280;59852;43.086;25.634;2023-02-13T09:39:40;100837.59;;;5.53;55.40
58668;BME280;59852;43.086;25.634;2023-02-13T09:42:10;100816.28;;;5.34;55.59
58668;BME280;59852;43.086;25.634;2023-02-13T09:44:41;100820.53;;;5.38;55.61
58668;BME280;59852;43.086;25.634;2023-02-13T09:49:46;100813.41;;;5.49;56.21
58668;BME280;59852;43.086;25.634;2023-02-13T09:52:14;100807.13;;;5.13;56.44
58668;BME280;59852;43.086;25.634;2023-02-13T09:54:40;100798.16;;;5.32;57.67
58668;BME280;59852;43.086;25.634;2023-02-13T09:59:55;100793.66;;;5.42;56.96
58668;BME280;59852;43.086;25.634;2023-02-13T10:05:21;100789.84;;;5.61;55.97
58668;BME280;59852;43.086;25.634;2023-02-13T10:17:58;100772.38;;;5.69;56.81
58668;BME280;59852;43.086;25.634;2023-02-13T10:20:38;100767.44;;;5.56;56.51
58668;BME280;59852;43.086;25.634;2023-02-13T10:25:41;100766.47;;;5.60;56.96
58668;BME280;59852;43.086;25.634;2023-02-13T10:28:11;100761.00;;;5.75;57.51
58668;BME280;59852;43.086;25.634;2023-02-13T10:30:45;100758.31;;;5.80;56.94
58668;BME280;59852;43.086;25.634;2023-02-13T10:33:14;100749.72;;;5.78;57.13
58668;BME280;59852;43.086;25.634;2023-02-13T10:35:58;100750.56;;;5.78;57.04
58668;BME280;59852;43.086;25.634;2023-02-13T10:38:26;100755.56;;;5.87;56.15
58668;BME280;59852;43.086;25.634;2023-02-13T10:43:25;100734.09;;;5.79;56.70
58668;BME280;59852;43.086;25.634;2023-02-13T10:48:36;100728.72;;;5.91;56.91
58668;BME280;59852;43.086;25.634;2023-02-13T10:51:25;100732.38;;;5.78;57.51
58668;BME280;59852;43.086;25.634;2023-02-13T11:01:36;100715.50;;;6.02;57.07
58668;BME280;59852;43.086;25.634;2023-02-13T11:04:11;100712.16;;;5.95;56.79
58668;BME280;59852;43.086;25.634;2023-02-13T11:06:37;100712.94;;;6.00;57.24
58668;BME280;59852;43.086;25.634;2023-02-13T11:09:06;100705.25;;;5.94;56.82
58668;BME280;59852;43.086;25.634;2023-02-13T11:11:36;100705.66;;;6.16;56.99
58668;BME280;59852;43.086;25.634;2023-02-13T11:14:07;100705.97;;;6.02;58.06
58668;BME280;59852;43.086;25.634;2023-02-13T11:17:06;100699.03;;;6.03;57.40
58668;BME280;59852;43.086;25.634;2023-02-13T11:21:54;100701.66;;;6.01;57.80
58668;BME280;59852;43.086;25.634;2023-02-13T11:24:24;100698.13;;;6.04;57.27
58668;BME280;59852;43.086;25.634;2023-02-13T11:26:51;100688.59;;;6.04;57.11
58668;BME280;59852;43.086;25.634;2023-02-13T11:29:51;100692.19;;;5.97;57.33
58668;BME280;59852;43.086;25.634;2023-02-13T11:32:17;100686.56;;;6.17;57.40
58668;BME280;59852;43.086;25.634;2023-02-13T11:34:42;100680.59;;;6.14;57.67
58668;BME280;59852;43.086;25.634;2023-02-13T11:37:19;100677.38;;;6.02;57.16
58668;BME280;59852;43.086;25.634;2023-02-13T11:39:45;100680.59;;;6.14;57.04
58668;BME280;59852;43.086;25.634;2023-02-13T11:44:50;100677.50;;;5.96;56.95
58668;BME280;59852;43.086;25.634;2023-02-13T11:47:19;100674.56;;;6.13;56.73
58668;BME280;59852;43.086;25.634;2023-02-13T11:49:53;100668.53;;;6.11;56.63
58668;BME280;59852;43.086;25.634;2023-02-13T11:52:23;100665.91;;;6.13;56.64
58668;BME280;59852;43.086;25.634;2023-02-13T11:54:54;100654.41;;;6.23;56.76
58668;BME280;59852;43.086;25.634;2023-02-13T11:57:21;100661.31;;;6.24;57.09
58668;BME280;59852;43.086;25.634;2023-02-13T11:59:47;100655.44;;;6.16;56.83
58668;BME280;59852;43.086;25.634;2023-02-13T12:04:45;100652.53;;;6.28;58.35
58668;BME280;59852;43.086;25.634;2023-02-13T12:07:26;100644.94;;;6.20;58.39
58668;BME280;59852;43.086;25.634;2023-02-13T12:09:58;100638.66;;;6.30;57.73
58668;BME280;59852;43.086;25.634;2023-02-13T12:12:27;100635.56;;;6.50;58.32
58668;BME280;59852;43.086;25.634;2023-02-13T12:14:54;100639.28;;;6.40;58.08
58668;BME280;59852;43.086;25.634;2023-02-13T12:17:21;100633.44;;;6.30;57.55
58668;BME280;59852;43.086;25.634;2023-02-13T12:19:47;100626.53;;;6.29;57.80
58668;BME280;59852;43.086;25.634;2023-02-13T12:29:54;100629.28;;;6.23;58.56
58668;BME280;59852;43.086;25.634;2023-02-13T12:46:05;100605.94;;;6.22;57.95
58668;BME280;59852;43.086;25.634;2023-02-13T12:48:16;100604.78;;;6.33;58.08
58668;BME280;59852;43.086;25.634;2023-02-13T12:51:06;100606.47;;;6.35;57.93
58668;BME280;59852;43.086;25.634;2023-02-13T12:54:15;100602.34;;;6.26;57.39
58668;BME280;59852;43.086;25.634;2023-02-13T12:59:22;100609.00;;;6.39;56.84
58668;BME280;59852;43.086;25.634;2023-02-13T13:01:49;100603.28;;;6.23;58.21
58668;BME280;59852;43.086;25.634;2023-02-13T13:04:40;100597.84;;;6.34;58.91
58668;BME280;59852;43.086;25.634;2023-02-13T13:22:14;100590.16;;;6.29;58.00
58668;BME280;59852;43.086;25.634;2023-02-13T13:27:24;100597.88;;;6.32;58.36
58668;BME280;59852;43.086;25.634;2023-02-13T13:29:53;100596.13;;;6.33;58.14
58668;BME280;59852;43.086;25.634;2023-02-13T13:32:20;100594.56;;;6.26;58.45
58668;BME280;59852;43.086;25.634;2023-02-13T13:34:46;100588.44;;;6.28;57.00
58668;BME280;59852;43.086;25.634;2023-02-13T13:37:34;100590.41;;;6.19;58.33
58668;BME280;59852;43.086;25.634;2023-02-13T13:45:44;100587.97;;;6.13;57.33
58668;BME280;59852;43.086;25.634;2023-02-13T13:50:41;100578.03;;;6.30;57.17
58668;BME280;59852;43.086;25.634;2023-02-13T13:53:09;100573.06;;;6.21;58.27
58668;BME280;59852;43.086;25.634;2023-02-13T14:03:33;100572.47;;;6.08;57.99
58668;BME280;59852;43.086;25.634;2023-02-13T14:06:04;100576.91;;;6.04;57.40
58668;BME280;59852;43.086;25.634;2023-02-13T14:11:02;100564.75;;;6.05;57.70
58668;BME280;59852;43.086;25.634;2023-02-13T14:13:28;100558.13;;;5.93;58.42
58668;BME280;59852;43.086;25.634;2023-02-13T14:15:53;100559.69;;;5.99;57.74
58668;BME280;59852;43.086;25.634;2023-02-13T14:18:20;100556.41;;;5.92;58.55
58668;BME280;59852;43.086;25.634;2023-02-13T14:25:43;100554.72;;;5.88;58.68
58668;BME280;59852;43.086;25.634;2023-02-13T14:28:22;100539.13;;;5.88;58.16
58668;BME280;59852;43.086;25.634;2023-02-13T14:30:48;100543.59;;;5.83;58.11
58668;BME280;59852;43.086;25.634;2023-02-13T14:33:24;100538.66;;;5.72;59.41
58668;BME280;59852;43.086;25.634;2023-02-13T14:36:05;100539.56;;;5.71;59.26
58668;BME280;59852;43.086;25.634;2023-02-13T14:38:31;100526.41;;;5.78;58.65
58668;BME280;59852;43.086;25.634;2023-02-13T14:40:57;100535.09;;;5.76;58.37
58668;BME280;59852;43.086;25.634;2023-02-13T14:43:29;100526.78;;;5.62;59.09
58668;BME280;59852;43.086;25.634;2023-02-13T14:51:33;100524.22;;;5.61;60.06
58668;BME280;59852;43.086;25.634;2023-02-13T14:54:23;100531.25;;;5.56;60.03
58668;BME280;59852;43.086;25.634;2023-02-13T14:56:45;100523.47;;;5.56;59.93
58668;BME280;59852;43.086;25.634;2023-02-13T14:59:21;100520.03;;;5.54;59.59
58668;BME280;59852;43.086;25.634;2023-02-13T15:01:52;100517.44;;;5.54;59.39
58668;BME280;59852;43.086;25.634;2023-02-13T15:04:33;100520.97;;;5.51;59.84
58668;BME280;59852;43.086;25.634;2023-02-13T15:07:00;100519.41;;;5.44;60.32
58668;BME280;59852;43.086;25.634;2023-02-13T15:09:31;100523.81;;;5.39;60.85
58668;BME280;59852;43.086;25.634;2023-02-13T15:11:58;100514.41;;;5.35;60.05
58668;BME280;59852;43.086;25.634;2023-02-13T15:14:29;100517.06;;;5.32;60.28
58668;BME280;59852;43.086;25.634;2023-02-13T15:17:01;100514.56;;;5.27;60.67
58668;BME280;59852;43.086;25.634;2023-02-13T15:19:27;100519.75;;;5.27;60.14
58668;BME280;59852;43.086;25.634;2023-02-13T15:21:54;100519.81;;;5.24;60.62
58668;BME280;59852;43.086;25.634;2023-02-13T15:24:20;100518.16;;;5.22;60.48
58668;BME280;59852;43.086;25.634;2023-02-13T15:27:00;100528.53;;;5.22;60.54
58668;BME280;59852;43.086;25.634;2023-02-13T15:29:26;100529.66;;;5.08;61.03
58668;BME280;59852;43.086;25.634;2023-02-13T15:31:52;100529.72;;;5.05;60.85